createdAt,value
2023-03-16T00:00:00.390Z,4.48
2023-03-16T00:00:14.991Z,4.47
2023-03-16T00:00:29.874Z,4.48
2023-03-16T00:00:43.660Z,4.48
2023-03-16T00:00:57.946Z,4.48
2023-03-16T00:01:11.906Z,4.46
2023-03-16T00:01:24.781Z,4.46
2023-03-16T00:01:37.453Z,4.45
2023-03-16T00:01:50.438Z,4.43
2023-03-16T00:02:05.574Z,4.44
2023-03-16T00:02:20.662Z,4.42
2023-03-16T00:02:34.784Z,4.41
2023-03-16T00:02:49.026Z,4.42
2023-03-16T00:03:02.116Z,4.38
2023-03-16T00:03:15.386Z,4.37
2023-03-16T00:03:28.075Z,4.36
2023-03-16T00:03:43.673Z,4.36
2023-03-16T00:03:57.463Z,4.36
2023-03-16T00:04:10.996Z,4.34
2023-03-16T00:04:23.904Z,4.34
2023-03-16T00:04:37.020Z,4.33
2023-03-16T00:04:50.019Z,4.33
2023-03-16T00:05:02.546Z,4.32
2023-03-16T00:05:15.067Z,4.31
2023-03-16T00:05:27.883Z,4.28
2023-03-16T00:05:40.575Z,4.29
2023-03-16T00:05:57.468Z,4.28
2023-03-16T00:06:09.956Z,4.27
2023-03-16T00:06:25.191Z,4.26
2023-03-16T00:06:39.078Z,4.26
2023-03-16T00:06:52.144Z,4.25
2023-03-16T00:07:07.058Z,4.25
2023-03-16T00:07:19.816Z,4.24
2023-03-16T00:07:36.377Z,4.23
2023-03-16T00:07:54.465Z,4.22
2023-03-16T00:08:10.196Z,4.21
2023-03-16T00:08:23.076Z,4.20
2023-03-16T00:08:35.454Z,4.17
2023-03-16T00:08:47.740Z,4.17
2023-03-16T00:09:01.316Z,4.18
2023-03-16T00:09:13.838Z,4.14
2023-03-16T00:09:37.181Z,4.14
2023-03-16T00:09:50.626Z,4.14
2023-03-16T00:10:03.818Z,4.11
2023-03-16T00:10:18.340Z,4.11
2023-03-16T00:10:33.369Z,4.10
2023-03-16T00:10:46.605Z,4.09
2023-03-16T00:11:00.813Z,4.08
2023-03-16T00:11:14.137Z,4.08
2023-03-16T00:11:29.180Z,4.07
2023-03-16T00:11:43.898Z,4.07
2023-03-16T00:12:01.802Z,4.06
2023-03-16T00:12:22.544Z,4.06
2023-03-16T00:12:35.877Z,4.05
2023-03-16T00:12:49.329Z,4.04
2023-03-16T00:13:01.948Z,4.02
2023-03-16T00:13:15.336Z,4.02
2023-03-16T00:13:30.363Z,4.02
2023-03-16T00:13:43.233Z,3.99
2023-03-16T00:13:56.643Z,4.01
2023-03-16T00:14:09.124Z,4.00
2023-03-16T00:14:22.605Z,3.99
2023-03-16T00:14:35.116Z,3.98
2023-03-16T00:14:52.161Z,3.96
2023-03-16T00:15:07.382Z,3.95
2023-03-16T00:15:20.976Z,3.95
2023-03-16T00:15:35.313Z,3.95
2023-03-16T00:15:50.606Z,3.95
2023-03-16T00:16:04.673Z,3.93
2023-03-16T00:16:19.231Z,3.92
2023-03-16T00:16:31.804Z,3.92
2023-03-16T00:16:46.391Z,3.91
2023-03-16T00:17:02.081Z,3.92
2023-03-16T00:17:16.683Z,3.92
2023-03-16T00:17:29.354Z,3.92
2023-03-16T00:17:42.909Z,3.90
2023-03-16T00:17:55.774Z,3.90
2023-03-16T00:18:09.020Z,3.90
2023-03-16T00:18:22.564Z,3.89
2023-03-16T00:18:37.792Z,3.89
2023-03-16T00:18:51.518Z,3.88
2023-03-16T00:19:05.021Z,3.87
2023-03-16T00:19:17.930Z,3.86
2023-03-16T00:19:35.111Z,3.86
2023-03-16T00:19:48.673Z,3.84
2023-03-16T00:20:01.215Z,3.84
2023-03-16T00:20:15.822Z,3.82
2023-03-16T00:20:28.786Z,3.84
2023-03-16T00:20:42.263Z,3.82
2023-03-16T00:20:59.599Z,3.82
2023-03-16T00:21:17.483Z,3.80
2023-03-16T00:21:34.143Z,3.81
2023-03-16T00:21:48.424Z,3.81
2023-03-16T00:22:01.068Z,3.80
2023-03-16T00:22:15.714Z,3.79
2023-03-16T00:22:30.470Z,3.78
2023-03-16T00:22:43.194Z,3.78
2023-03-16T00:22:55.943Z,3.78
2023-03-16T00:23:10.997Z,3.76
2023-03-16T00:23:25.380Z,3.79
2023-03-16T00:23:40.444Z,3.80
2023-03-16T00:23:53.827Z,3.80
2023-03-16T00:24:07.810Z,3.81
2023-03-16T00:24:20.672Z,3.81
2023-03-16T00:24:33.364Z,3.79
2023-03-16T00:24:47.127Z,3.80
2023-03-16T00:24:59.906Z,3.80
2023-03-16T00:25:13.675Z,3.77
2023-03-16T00:25:28.016Z,3.80
2023-03-16T00:25:41.068Z,3.78
2023-03-16T00:25:54.976Z,3.77
2023-03-16T00:26:09.811Z,3.79
2023-03-16T00:26:26.482Z,3.77
2023-03-16T00:26:40.813Z,3.76
2023-03-16T00:26:53.239Z,3.75
2023-03-16T00:27:06.571Z,3.75
2023-03-16T00:27:19.695Z,3.74
2023-03-16T00:27:32.286Z,3.74
2023-03-16T00:27:45.966Z,3.72
2023-03-16T00:27:58.949Z,3.74
2023-03-16T00:28:12.191Z,3.73
2023-03-16T00:28:26.476Z,3.72
2023-03-16T00:28:39.360Z,3.72
2023-03-16T00:28:52.433Z,3.71
2023-03-16T00:29:05.753Z,3.71
2023-03-16T00:29:19.477Z,3.72
2023-03-16T00:29:33.127Z,3.71
2023-03-16T00:29:51.786Z,3.71
2023-03-16T00:30:04.744Z,3.71
2023-03-16T00:30:17.122Z,3.69
2023-03-16T00:30:34.092Z,3.68
2023-03-16T00:30:47.144Z,3.69
2023-03-16T00:31:01.627Z,3.70
2023-03-16T00:31:17.879Z,3.69
2023-03-16T00:31:33.389Z,3.70
2023-03-16T00:31:46.431Z,3.68
2023-03-16T00:32:02.570Z,3.69
2023-03-16T00:32:16.445Z,3.69
2023-03-16T00:32:30.689Z,3.69
2023-03-16T00:32:43.206Z,3.68
2023-03-16T00:32:56.357Z,3.69
2023-03-16T00:33:08.607Z,3.69
2023-03-16T00:33:23.659Z,3.70
2023-03-16T00:33:38.557Z,3.71
2023-03-16T00:33:51.641Z,3.71
2023-03-16T00:34:06.814Z,3.70
2023-03-16T00:34:20.921Z,3.70
2023-03-16T00:34:33.719Z,3.70
2023-03-16T00:34:50.023Z,3.69
2023-03-16T00:35:02.368Z,3.70
2023-03-16T00:35:15.340Z,3.70
2023-03-16T00:35:29.785Z,3.69
2023-03-16T00:35:48.408Z,3.69
2023-03-16T00:36:04.500Z,3.68
2023-03-16T00:36:17.800Z,3.67
2023-03-16T00:36:31.802Z,3.68
2023-03-16T00:36:46.648Z,3.67
2023-03-16T00:37:02.648Z,3.68
2023-03-16T00:37:21.869Z,3.66
2023-03-16T00:37:36.904Z,3.67
2023-03-16T00:37:51.702Z,3.67
2023-03-16T00:38:04.401Z,3.67
2023-03-16T00:38:17.782Z,3.68
2023-03-16T00:38:33.799Z,3.68
2023-03-16T00:38:48.528Z,3.65
2023-03-16T00:39:03.001Z,3.67
2023-03-16T00:39:15.983Z,3.68
2023-03-16T00:39:28.246Z,3.66
2023-03-16T00:39:42.623Z,3.67
2023-03-16T00:39:58.778Z,3.66
2023-03-16T00:40:11.821Z,3.66
2023-03-16T00:40:23.995Z,3.66
2023-03-16T00:40:36.963Z,3.65
2023-03-16T00:40:50.742Z,3.65
2023-03-16T00:41:04.869Z,3.64
2023-03-16T00:41:17.555Z,3.62
2023-03-16T00:41:32.612Z,3.65
2023-03-16T00:41:53.094Z,3.64
2023-03-16T00:42:08.513Z,3.63
2023-03-16T00:42:24.554Z,3.60
2023-03-16T00:42:37.275Z,3.60
2023-03-16T00:42:49.413Z,3.59
2023-03-16T00:43:09.326Z,3.58
2023-03-16T00:43:23.821Z,3.59
2023-03-16T00:43:38.641Z,3.56
2023-03-16T00:43:52.644Z,3.54
2023-03-16T00:44:05.057Z,3.53
2023-03-16T00:44:17.994Z,3.53
2023-03-16T00:44:30.917Z,3.54
2023-03-16T00:44:44.053Z,3.54
2023-03-16T00:44:58.200Z,3.52
2023-03-16T00:45:13.945Z,3.50
2023-03-16T00:45:26.465Z,3.49
2023-03-16T00:45:38.877Z,3.49
2023-03-16T00:45:59.917Z,3.48
2023-03-16T00:46:16.453Z,3.48
2023-03-16T00:46:29.602Z,3.48
2023-03-16T00:46:44.726Z,3.46
2023-03-16T00:46:59.291Z,3.46
2023-03-16T00:47:13.178Z,3.45
2023-03-16T00:47:30.918Z,3.45
2023-03-16T00:47:43.737Z,3.43
2023-03-16T00:48:00.542Z,3.43
2023-03-16T00:48:13.022Z,3.43
2023-03-16T00:48:25.541Z,3.41
2023-03-16T00:48:40.449Z,3.41
2023-03-16T00:48:53.173Z,3.41
2023-03-16T00:49:05.888Z,3.40
2023-03-16T00:49:21.221Z,3.40
2023-03-16T00:49:33.822Z,3.39
2023-03-16T00:49:47.053Z,3.39
2023-03-16T00:50:01.219Z,3.37
2023-03-16T00:50:15.874Z,3.37
2023-03-16T00:50:31.817Z,3.34
2023-03-16T00:50:44.227Z,3.37
2023-03-16T00:50:58.684Z,3.36
2023-03-16T00:51:15.176Z,3.37
2023-03-16T00:51:27.305Z,3.36
2023-03-16T00:51:43.667Z,3.37
2023-03-16T00:52:02.727Z,3.36
2023-03-16T00:52:15.520Z,3.34
2023-03-16T00:52:31.820Z,3.34
2023-03-16T00:52:45.816Z,3.34
2023-03-16T00:53:00.193Z,3.34
2023-03-16T00:53:13.742Z,3.34
2023-03-16T00:53:25.675Z,3.34
2023-03-16T00:53:41.798Z,3.33
2023-03-16T00:53:55.435Z,3.34
2023-03-16T00:54:08.578Z,3.32
2023-03-16T00:54:21.137Z,3.33
2023-03-16T00:54:33.897Z,3.32
2023-03-16T00:54:47.724Z,3.31
2023-03-16T00:55:01.512Z,3.32
2023-03-16T00:55:14.294Z,3.30
2023-03-16T00:55:28.646Z,3.32
2023-03-16T00:55:41.786Z,3.30
2023-03-16T00:55:56.284Z,3.30
2023-03-16T00:56:10.530Z,3.30
2023-03-16T00:56:24.868Z,3.29
2023-03-16T00:56:39.413Z,3.30
2023-03-16T00:56:51.716Z,3.29
2023-03-16T00:57:11.439Z,3.30
2023-03-16T00:57:27.647Z,3.28
2023-03-16T00:57:42.644Z,3.30
2023-03-16T00:57:57.535Z,3.31
2023-03-16T00:58:10.596Z,3.31
2023-03-16T00:58:23.670Z,3.31
2023-03-16T00:58:39.180Z,3.31
2023-03-16T00:58:54.675Z,3.31
2023-03-16T00:59:07.079Z,3.28
2023-03-16T00:59:21.287Z,3.30
2023-03-16T00:59:35.119Z,3.31
2023-03-16T00:59:47.678Z,3.31
2023-03-16T01:00:00.668Z,3.30
2023-03-16T01:00:14.668Z,3.29
2023-03-16T01:00:31.915Z,3.31
2023-03-16T01:00:47.071Z,3.30
2023-03-16T01:01:00.240Z,3.30
2023-03-16T01:01:15.579Z,3.30
2023-03-16T01:01:31.070Z,3.30
2023-03-16T01:01:43.846Z,3.30
2023-03-16T01:01:57.000Z,3.29
2023-03-16T01:02:12.183Z,3.29
2023-03-16T01:02:25.432Z,3.28
2023-03-16T01:02:40.715Z,3.27
2023-03-16T01:02:54.837Z,3.28
2023-03-16T01:03:07.553Z,3.28
2023-03-16T01:03:20.822Z,3.29
2023-03-16T01:03:35.347Z,3.28
2023-03-16T01:03:49.772Z,3.29
2023-03-16T01:04:02.524Z,3.28
2023-03-16T01:04:15.008Z,3.27
2023-03-16T01:04:27.152Z,3.28
2023-03-16T01:04:40.961Z,3.27
2023-03-16T01:04:55.471Z,3.28
2023-03-16T01:05:09.492Z,3.28
2023-03-16T01:05:23.866Z,3.26
2023-03-16T01:05:40.904Z,3.26
2023-03-16T01:05:53.958Z,3.26
2023-03-16T01:06:07.836Z,3.25
2023-03-16T01:06:23.824Z,3.26
2023-03-16T01:06:40.103Z,3.25
2023-03-16T01:06:53.971Z,3.25
2023-03-16T01:07:07.747Z,3.25
2023-03-16T01:07:22.802Z,3.26
2023-03-16T01:07:36.118Z,3.26
2023-03-16T01:07:50.407Z,3.24
2023-03-16T01:08:02.904Z,3.24
2023-03-16T01:08:16.746Z,3.25
2023-03-16T01:08:30.919Z,3.25
2023-03-16T01:08:44.417Z,3.23
2023-03-16T01:08:58.027Z,3.23
2023-03-16T01:09:10.052Z,3.25
2023-03-16T01:09:22.413Z,3.22
2023-03-16T01:09:40.912Z,3.24
2023-03-16T01:09:58.689Z,3.23
2023-03-16T01:10:13.966Z,3.23
2023-03-16T01:10:27.520Z,3.22
2023-03-16T01:10:45.717Z,3.22
2023-03-16T01:11:02.565Z,3.21
2023-03-16T01:11:18.693Z,3.21
2023-03-16T01:11:33.213Z,3.17
2023-03-16T01:11:47.657Z,3.18
2023-03-16T01:12:01.222Z,3.18
2023-03-16T01:12:16.481Z,3.17
2023-03-16T01:12:31.097Z,3.17
2023-03-16T01:12:45.329Z,3.14
2023-03-16T01:13:01.315Z,3.14
2023-03-16T01:13:16.890Z,3.13
2023-03-16T01:13:30.782Z,3.12
2023-03-16T01:13:43.692Z,3.14
2023-03-16T01:13:56.840Z,3.12
2023-03-16T01:14:09.784Z,3.11
2023-03-16T01:14:22.318Z,3.13
2023-03-16T01:14:35.534Z,3.12
2023-03-16T01:14:49.571Z,3.13
2023-03-16T01:15:01.958Z,3.11
2023-03-16T01:15:14.720Z,3.12
2023-03-16T01:15:27.333Z,3.11
2023-03-16T01:15:42.788Z,3.11
2023-03-16T01:15:59.012Z,3.11
2023-03-16T01:16:11.659Z,3.11
2023-03-16T01:16:23.674Z,3.12
2023-03-16T01:16:35.930Z,3.12
2023-03-16T01:16:50.982Z,3.11
2023-03-16T01:17:11.032Z,3.12
2023-03-16T01:17:28.460Z,3.14
2023-03-16T01:17:42.244Z,3.13
2023-03-16T01:17:55.703Z,3.11
2023-03-16T01:18:08.310Z,3.14
2023-03-16T01:18:22.979Z,3.14
2023-03-16T01:18:39.183Z,3.14
2023-03-16T01:18:52.832Z,3.17
2023-03-16T01:19:05.784Z,3.16
2023-03-16T01:19:18.721Z,3.16
2023-03-16T01:19:31.744Z,3.18
2023-03-16T01:19:47.448Z,3.18
2023-03-16T01:20:00.017Z,3.19
2023-03-16T01:20:12.931Z,3.20
2023-03-16T01:20:32.357Z,3.21
2023-03-16T01:20:47.665Z,3.23
2023-03-16T01:21:03.393Z,3.22
2023-03-16T01:21:18.808Z,3.24
2023-03-16T01:21:34.852Z,3.21
2023-03-16T01:21:48.707Z,3.21
2023-03-16T01:22:09.294Z,3.24
2023-03-16T01:22:21.972Z,3.24
2023-03-16T01:22:37.433Z,3.26
2023-03-16T01:22:51.118Z,3.25
2023-03-16T01:23:04.128Z,3.25
2023-03-16T01:23:17.924Z,3.25
2023-03-16T01:23:31.437Z,3.26
2023-03-16T01:23:44.016Z,3.27
2023-03-16T01:23:58.006Z,3.28
2023-03-16T01:24:12.515Z,3.28
2023-03-16T01:24:26.570Z,3.28
2023-03-16T01:24:40.574Z,3.30
2023-03-16T01:24:56.806Z,3.31
2023-03-16T01:25:12.112Z,3.31
2023-03-16T01:25:28.316Z,3.33
2023-03-16T01:25:44.016Z,3.32
2023-03-16T01:25:56.738Z,3.34
2023-03-16T01:26:08.790Z,3.34
2023-03-16T01:26:24.133Z,3.35
2023-03-16T01:26:37.430Z,3.37
2023-03-16T01:26:52.104Z,3.38
2023-03-16T01:27:07.346Z,3.37
2023-03-16T01:27:23.008Z,3.38
2023-03-16T01:27:40.105Z,3.38
2023-03-16T01:27:53.914Z,3.38
2023-03-16T01:28:07.779Z,3.39
2023-03-16T01:28:22.756Z,3.39
2023-03-16T01:28:37.464Z,3.39
2023-03-16T01:28:49.632Z,3.39
2023-03-16T01:29:05.908Z,3.38
2023-03-16T01:29:47.224Z,3.40
2023-03-16T01:30:01.517Z,3.39
2023-03-16T01:30:18.848Z,3.40
2023-03-16T01:30:31.868Z,3.38
2023-03-16T01:30:50.918Z,3.38
2023-03-16T01:31:07.688Z,3.41
2023-03-16T01:31:52.485Z,3.42
2023-03-16T01:32:05.132Z,3.42
2023-03-16T01:32:20.097Z,3.41
2023-03-16T01:32:33.390Z,3.41
2023-03-16T01:32:47.128Z,3.42
2023-03-16T01:33:02.191Z,3.42
2023-03-16T01:33:15.148Z,3.43
2023-03-16T01:33:30.063Z,3.44
2023-03-16T01:33:48.130Z,3.45
2023-03-16T01:34:12.124Z,3.43
2023-03-16T01:34:24.932Z,3.46
2023-03-16T01:34:40.033Z,3.45
2023-03-16T01:34:57.287Z,3.46
2023-03-16T01:35:13.518Z,3.45
2023-03-16T01:35:25.698Z,3.45
2023-03-16T01:35:40.466Z,3.44
2023-03-16T01:35:54.487Z,3.45
2023-03-16T01:36:09.424Z,3.44
2023-03-16T01:36:37.446Z,3.45
2023-03-16T01:36:56.111Z,3.45
2023-03-16T01:37:15.612Z,3.44
2023-03-16T01:37:55.682Z,3.44
2023-03-16T01:38:12.845Z,3.44
2023-03-16T01:38:26.739Z,3.44
2023-03-16T01:38:38.891Z,3.44
2023-03-16T01:38:52.370Z,3.43
2023-03-16T01:39:05.567Z,3.45
2023-03-16T01:39:25.458Z,3.43
2023-03-16T01:39:38.010Z,3.43
2023-03-16T01:39:53.107Z,3.44
2023-03-16T01:40:10.277Z,3.44
2023-03-16T01:40:23.876Z,3.44
2023-03-16T01:40:36.308Z,3.43
2023-03-16T01:40:48.402Z,3.43
2023-03-16T01:41:01.822Z,3.43
2023-03-16T01:41:14.846Z,3.43
2023-03-16T01:41:28.799Z,3.44
2023-03-16T01:41:41.866Z,3.44
2023-03-16T01:41:54.205Z,3.43
2023-03-16T01:42:07.191Z,3.43
2023-03-16T01:42:19.629Z,3.43
2023-03-16T01:42:32.437Z,3.43
2023-03-16T01:43:01.389Z,3.43
2023-03-16T01:43:15.738Z,3.44
2023-03-16T01:43:30.693Z,3.44
2023-03-16T01:43:44.957Z,3.44
2023-03-16T01:43:59.318Z,3.44
2023-03-16T01:44:16.008Z,3.44
2023-03-16T01:44:28.943Z,3.44
2023-03-16T01:44:52.024Z,3.45
2023-03-16T01:45:10.143Z,3.44
2023-03-16T01:46:03.700Z,3.44
2023-03-16T01:46:22.763Z,3.45
2023-03-16T01:46:39.450Z,3.45
2023-03-16T01:46:53.029Z,3.46
2023-03-16T01:47:08.153Z,3.44
2023-03-16T01:47:20.646Z,3.45
2023-03-16T01:47:33.838Z,3.45
2023-03-16T01:47:46.480Z,3.44
2023-03-16T01:48:01.748Z,3.46
2023-03-16T01:48:19.567Z,3.46
2023-03-16T01:48:35.852Z,3.45
2023-03-16T01:48:57.576Z,3.46
2023-03-16T01:49:16.725Z,3.44
2023-03-16T01:49:33.595Z,3.46
2023-03-16T01:49:53.170Z,3.45
2023-03-16T01:50:08.115Z,3.47
2023-03-16T01:50:26.058Z,3.47
2023-03-16T01:50:43.373Z,3.47
2023-03-16T01:50:57.613Z,3.47
2023-03-16T01:51:14.920Z,3.47
2023-03-16T01:51:35.294Z,3.48
2023-03-16T01:51:51.500Z,3.49
2023-03-16T01:52:10.456Z,3.48
2023-03-16T01:52:28.573Z,3.48
2023-03-16T01:52:41.023Z,3.48
2023-03-16T01:52:54.521Z,3.48
2023-03-16T01:53:07.204Z,3.48
2023-03-16T01:53:23.578Z,3.47
2023-03-16T01:53:37.908Z,3.46
2023-03-16T01:53:53.064Z,3.47
2023-03-16T01:54:14.380Z,3.48
2023-03-16T01:54:32.307Z,3.48
2023-03-16T01:54:48.912Z,3.48
2023-03-16T01:55:04.815Z,3.49
2023-03-16T01:55:19.711Z,3.49
2023-03-16T01:55:37.602Z,3.49
2023-03-16T01:55:51.763Z,3.46
2023-03-16T01:56:07.325Z,3.48
2023-03-16T01:56:24.669Z,3.48
2023-03-16T01:56:40.942Z,3.48
2023-03-16T01:56:59.868Z,3.49
2023-03-16T01:57:17.705Z,3.48
2023-03-16T01:57:43.398Z,3.49
2023-03-16T01:57:57.923Z,3.49
2023-03-16T01:58:11.043Z,3.48
2023-03-16T01:58:27.943Z,3.48
2023-03-16T01:58:45.137Z,3.49
2023-03-16T01:59:01.146Z,3.47
2023-03-16T01:59:18.328Z,3.48
2023-03-16T01:59:34.817Z,3.45
2023-03-16T01:59:51.976Z,3.47
2023-03-16T02:00:16.664Z,3.47
2023-03-16T02:00:37.797Z,3.46
2023-03-16T02:01:04.627Z,3.45
2023-03-16T02:01:19.989Z,3.45
2023-03-16T02:01:35.644Z,3.46
2023-03-16T02:01:51.072Z,3.46
2023-03-16T02:02:06.259Z,3.47
2023-03-16T02:02:21.093Z,3.48
2023-03-16T02:02:36.547Z,3.48
2023-03-16T02:02:55.043Z,3.48
2023-03-16T02:03:19.792Z,3.49
2023-03-16T02:03:47.226Z,3.49
2023-03-16T02:04:24.199Z,3.49
2023-03-16T02:04:50.466Z,3.49
2023-03-16T02:05:10.341Z,3.47
2023-03-16T02:05:28.419Z,3.48
2023-03-16T02:05:46.399Z,3.47
2023-03-16T02:06:06.689Z,3.46
2023-03-16T02:06:21.321Z,3.46
2023-03-16T02:06:39.572Z,3.47
2023-03-16T02:06:55.866Z,3.46
2023-03-16T02:07:16.123Z,3.47
2023-03-16T02:07:32.207Z,3.47
2023-03-16T02:07:48.133Z,3.49
2023-03-16T02:08:02.776Z,3.47
2023-03-16T02:08:19.583Z,3.48
2023-03-16T02:08:36.953Z,3.48
2023-03-16T02:08:54.939Z,3.48
2023-03-16T02:09:15.101Z,3.45
2023-03-16T02:09:27.978Z,3.48
2023-03-16T02:09:45.281Z,3.47
2023-03-16T02:10:01.412Z,3.47
2023-03-16T02:10:19.520Z,3.47
2023-03-16T02:10:33.809Z,3.47
2023-03-16T02:10:46.695Z,3.47
2023-03-16T02:11:02.388Z,3.48
2023-03-16T02:11:26.971Z,3.47
2023-03-16T02:11:50.646Z,3.46
2023-03-16T02:12:09.188Z,3.47
2023-03-16T02:12:27.065Z,3.47
2023-03-16T02:12:43.377Z,3.45
2023-03-16T02:12:55.737Z,3.45
2023-03-16T02:13:08.918Z,3.43
2023-03-16T02:13:26.805Z,3.44
2023-03-16T02:13:40.450Z,3.43
2023-03-16T02:13:53.187Z,3.42
2023-03-16T02:14:10.712Z,3.42
2023-03-16T02:14:25.384Z,3.41
2023-03-16T02:14:39.011Z,3.41
2023-03-16T02:14:52.423Z,3.39
2023-03-16T02:15:05.834Z,3.36
2023-03-16T02:15:20.156Z,3.35
2023-03-16T02:15:38.144Z,3.34
2023-03-16T02:15:54.807Z,3.34
2023-03-16T02:16:10.365Z,3.31
2023-03-16T02:16:23.889Z,3.31
2023-03-16T02:16:40.112Z,3.31
2023-03-16T02:16:56.400Z,3.30
2023-03-16T02:17:09.050Z,3.28
2023-03-16T02:17:24.045Z,3.27
2023-03-16T02:17:42.027Z,3.27
2023-03-16T02:17:59.666Z,3.26
2023-03-16T02:18:14.585Z,3.25
2023-03-16T02:18:28.690Z,3.24
2023-03-16T02:18:41.588Z,3.23
2023-03-16T02:18:55.132Z,3.21
2023-03-16T02:19:13.310Z,3.23
2023-03-16T02:19:39.776Z,3.21
2023-03-16T02:20:06.534Z,3.19
2023-03-16T02:20:35.049Z,3.19
2023-03-16T02:20:56.577Z,3.17
2023-03-16T02:21:19.405Z,3.16
2023-03-16T02:21:39.679Z,3.15
2023-03-16T02:22:02.823Z,3.14
2023-03-16T02:22:24.091Z,3.14
2023-03-16T02:22:45.259Z,3.08
2023-03-16T02:23:01.289Z,3.09
2023-03-16T02:23:18.785Z,3.11
2023-03-16T02:23:35.822Z,3.12
2023-03-16T02:23:51.582Z,3.11
2023-03-16T02:24:05.871Z,3.12
2023-03-16T02:24:19.680Z,3.12
2023-03-16T02:24:32.927Z,3.11
2023-03-16T02:24:45.744Z,3.10
2023-03-16T02:25:06.732Z,3.12
2023-03-16T02:25:21.141Z,3.10
2023-03-16T02:25:43.652Z,3.11
2023-03-16T02:26:07.126Z,3.11
2023-03-16T02:26:37.379Z,3.10
2023-03-16T02:26:57.551Z,3.08
2023-03-16T02:27:24.318Z,3.09
2023-03-16T02:27:43.624Z,3.09
2023-03-16T02:28:07.290Z,3.08
2023-03-16T02:28:31.414Z,3.07
2023-03-16T02:28:51.795Z,3.09
2023-03-16T02:29:19.249Z,3.08
2023-03-16T02:30:09.476Z,3.06
2023-03-16T02:30:28.790Z,3.05
2023-03-16T02:30:46.063Z,3.06
2023-03-16T02:30:59.047Z,3.04
2023-03-16T02:31:15.455Z,3.05
2023-03-16T02:31:28.584Z,3.04
2023-03-16T02:31:40.927Z,3.05
2023-03-16T02:31:54.742Z,3.04
2023-03-16T02:32:07.456Z,3.04
2023-03-16T02:32:22.490Z,3.03
2023-03-16T02:32:39.636Z,3.04
2023-03-16T02:32:53.006Z,3.05
2023-03-16T02:33:07.444Z,3.03
2023-03-16T02:33:22.662Z,3.04
2023-03-16T02:33:36.546Z,3.05
2023-03-16T02:33:53.534Z,3.04
2023-03-16T02:34:07.119Z,3.04
2023-03-16T02:34:19.650Z,3.03
2023-03-16T02:34:32.457Z,3.03
2023-03-16T02:34:46.326Z,3.03
2023-03-16T02:35:00.606Z,3.03
2023-03-16T02:35:14.115Z,3.03
2023-03-16T02:35:27.351Z,3.02
2023-03-16T02:35:40.196Z,3.02
2023-03-16T02:35:52.522Z,3.02
2023-03-16T02:36:05.868Z,3.01
2023-03-16T02:36:22.450Z,3.01
2023-03-16T02:36:39.051Z,3.00
2023-03-16T02:36:53.670Z,3.00
2023-03-16T02:37:19.634Z,2.99
2023-03-16T02:37:32.955Z,2.99
2023-03-16T02:37:48.443Z,2.98
2023-03-16T02:38:01.653Z,2.98
2023-03-16T02:38:18.420Z,3.00
2023-03-16T02:38:35.472Z,2.99
2023-03-16T02:38:48.147Z,2.97
2023-03-16T02:39:03.195Z,2.98
2023-03-16T02:39:23.677Z,2.97
2023-03-16T02:39:36.189Z,2.97
2023-03-16T02:39:49.700Z,2.97
2023-03-16T02:40:17.881Z,2.96
2023-03-16T02:40:33.922Z,2.96
2023-03-16T02:41:00.268Z,2.96
2023-03-16T02:41:15.928Z,2.95
2023-03-16T02:41:29.060Z,2.95
2023-03-16T02:41:44.856Z,2.95
2023-03-16T02:41:58.172Z,2.93
2023-03-16T02:42:14.925Z,2.94
2023-03-16T02:42:30.891Z,2.93
2023-03-16T02:42:48.896Z,2.92
2023-03-16T02:43:04.652Z,2.92
2023-03-16T02:43:25.046Z,2.92
2023-03-16T02:43:56.915Z,2.92
2023-03-16T02:44:17.985Z,2.92
2023-03-16T02:44:33.899Z,2.91
2023-03-16T02:44:54.829Z,2.92
2023-03-16T02:45:13.893Z,2.89
2023-03-16T02:45:32.553Z,2.91
2023-03-16T02:45:50.068Z,2.90
2023-03-16T02:46:07.650Z,2.90
2023-03-16T02:46:28.757Z,2.89
2023-03-16T02:46:42.834Z,2.88
2023-03-16T02:47:00.933Z,2.88
2023-03-16T02:47:20.617Z,2.87
2023-03-16T02:47:43.166Z,2.87
2023-03-16T02:47:58.480Z,2.88
2023-03-16T02:48:15.110Z,2.83
2023-03-16T02:48:34.854Z,2.84
2023-03-16T02:48:52.125Z,2.84
2023-03-16T02:49:10.905Z,2.84
2023-03-16T02:49:28.211Z,2.84
2023-03-16T02:49:45.351Z,2.83
2023-03-16T02:49:58.773Z,2.82
2023-03-16T02:50:13.137Z,2.82
2023-03-16T02:50:27.595Z,2.83
2023-03-16T02:50:45.426Z,2.82
2023-03-16T02:50:59.128Z,2.83
2023-03-16T02:51:16.537Z,2.82
2023-03-16T02:51:36.505Z,2.82
2023-03-16T02:51:52.541Z,2.82
2023-03-16T02:52:08.290Z,2.82
2023-03-16T02:52:23.871Z,2.81
2023-03-16T02:52:39.962Z,2.81
2023-03-16T02:52:52.601Z,2.80
2023-03-16T02:53:06.649Z,2.79
2023-03-16T02:53:19.972Z,2.77
2023-03-16T02:53:35.450Z,2.78
2023-03-16T02:53:48.665Z,2.78
2023-03-16T02:54:01.640Z,2.78
2023-03-16T02:54:17.782Z,2.77
2023-03-16T02:54:30.179Z,2.76
2023-03-16T02:54:42.345Z,2.76
2023-03-16T02:54:58.228Z,2.77
2023-03-16T02:55:10.533Z,2.75
2023-03-16T02:55:24.649Z,2.74
2023-03-16T02:55:37.897Z,2.75
2023-03-16T02:55:51.028Z,2.73
2023-03-16T02:56:04.544Z,2.75
2023-03-16T02:56:23.343Z,2.73
2023-03-16T02:56:36.281Z,2.72
2023-03-16T02:56:49.350Z,2.72
2023-03-16T02:57:03.386Z,2.71
2023-03-16T02:57:19.831Z,2.72
2023-03-16T02:57:34.057Z,2.71
2023-03-16T02:57:54.242Z,2.71
2023-03-16T02:58:07.006Z,2.70
2023-03-16T02:58:22.817Z,2.71
2023-03-16T02:58:35.589Z,2.69
2023-03-16T02:58:51.812Z,2.68
2023-03-16T02:59:07.934Z,2.67
2023-03-16T02:59:20.139Z,2.68
2023-03-16T02:59:34.386Z,2.67
2023-03-16T02:59:48.383Z,2.67
2023-03-16T03:00:03.076Z,2.65
2023-03-16T03:00:19.621Z,2.64
2023-03-16T03:00:38.857Z,2.66
2023-03-16T03:00:52.998Z,2.64
2023-03-16T03:01:06.150Z,2.64
2023-03-16T03:01:20.400Z,2.65
2023-03-16T03:01:33.059Z,2.64
2023-03-16T03:01:48.798Z,2.62
2023-03-16T03:02:03.718Z,2.62
2023-03-16T03:02:16.005Z,2.61
2023-03-16T03:02:30.659Z,2.60
2023-03-16T03:02:43.884Z,2.60
2023-03-16T03:03:01.817Z,2.61
2023-03-16T03:03:16.724Z,2.61
2023-03-16T03:03:30.174Z,2.62
2023-03-16T03:03:43.814Z,2.64
2023-03-16T03:03:56.019Z,2.64
2023-03-16T03:04:09.482Z,2.66
2023-03-16T03:04:22.327Z,2.66
2023-03-16T03:04:35.250Z,2.66
2023-03-16T03:04:47.817Z,2.66
2023-03-16T03:05:03.152Z,2.68
2023-03-16T03:05:15.489Z,2.69
2023-03-16T03:05:32.870Z,2.70
2023-03-16T03:05:48.256Z,2.71
2023-03-16T03:06:00.412Z,2.70
2023-03-16T03:06:14.614Z,2.71
2023-03-16T03:06:27.328Z,2.72
2023-03-16T03:06:43.866Z,2.73
2023-03-16T03:06:55.958Z,2.76
2023-03-16T03:07:11.900Z,2.76
2023-03-16T03:07:40.850Z,2.80
2023-03-16T03:07:53.588Z,2.80
2023-03-16T03:08:06.191Z,2.80
2023-03-16T03:08:19.043Z,2.82
2023-03-16T03:08:36.795Z,2.82
2023-03-16T03:08:51.610Z,2.84
2023-03-16T03:09:04.939Z,2.85
2023-03-16T03:09:24.630Z,2.86
2023-03-16T03:09:41.226Z,2.81
2023-03-16T03:09:54.606Z,2.86
2023-03-16T03:10:09.644Z,2.85
2023-03-16T03:10:23.103Z,2.88
2023-03-16T03:10:36.136Z,2.89
2023-03-16T03:10:49.844Z,2.88
2023-03-16T03:11:05.114Z,2.91
2023-03-16T03:11:19.412Z,2.93
2023-03-16T03:11:33.214Z,2.93
2023-03-16T03:11:45.585Z,2.92
2023-03-16T03:12:00.428Z,2.94
2023-03-16T03:12:20.172Z,2.93
2023-03-16T03:12:35.756Z,2.93
2023-03-16T03:12:58.417Z,2.93
2023-03-16T03:13:10.797Z,2.93
2023-03-16T03:13:23.934Z,2.92
2023-03-16T03:13:36.711Z,2.93
2023-03-16T03:13:51.165Z,2.92
2023-03-16T03:14:10.927Z,2.95
2023-03-16T03:14:25.892Z,2.96
2023-03-16T03:14:39.020Z,2.95
2023-03-16T03:14:52.101Z,2.97
2023-03-16T03:15:08.584Z,2.98
2023-03-16T03:15:32.005Z,2.97
2023-03-16T03:15:50.443Z,2.98
2023-03-16T03:16:04.423Z,2.97
2023-03-16T03:16:19.494Z,2.99
2023-03-16T03:16:35.060Z,2.98
2023-03-16T03:16:48.707Z,3.00
2023-03-16T03:17:02.031Z,2.99
2023-03-16T03:17:14.840Z,2.99
2023-03-16T03:17:27.538Z,2.99
2023-03-16T03:17:52.115Z,2.98
2023-03-16T03:18:09.913Z,2.99
2023-03-16T03:18:22.818Z,2.99
2023-03-16T03:18:37.348Z,3.00
2023-03-16T03:18:54.454Z,3.00
2023-03-16T03:19:06.943Z,3.00
2023-03-16T03:19:23.688Z,3.01
2023-03-16T03:19:39.887Z,3.04
2023-03-16T03:19:52.028Z,3.04
2023-03-16T03:20:06.319Z,3.04
2023-03-16T03:20:19.025Z,3.03
2023-03-16T03:20:34.398Z,3.03
2023-03-16T03:20:47.845Z,3.05
2023-03-16T03:21:00.246Z,3.05
2023-03-16T03:21:12.743Z,3.06
2023-03-16T03:21:25.914Z,3.04
2023-03-16T03:21:38.811Z,3.03
2023-03-16T03:21:52.737Z,3.05
2023-03-16T03:22:11.331Z,3.04
2023-03-16T03:22:27.174Z,3.05
2023-03-16T03:22:40.371Z,3.05
2023-03-16T03:22:52.560Z,3.06
2023-03-16T03:23:04.944Z,3.05
2023-03-16T03:23:18.746Z,3.05
2023-03-16T03:23:33.842Z,3.03
2023-03-16T03:23:46.637Z,3.05
2023-03-16T03:24:02.398Z,3.04
2023-03-16T03:24:16.836Z,3.05
2023-03-16T03:24:29.409Z,3.04
2023-03-16T03:24:43.201Z,3.04
2023-03-16T03:24:55.531Z,3.02
2023-03-16T03:25:08.644Z,3.05
2023-03-16T03:25:23.581Z,3.04
2023-03-16T03:25:38.741Z,3.05
2023-03-16T03:25:52.046Z,3.04
2023-03-16T03:26:07.925Z,3.05